sensor_id;sensor_type;location;lat;lon;timestamp;P1;durP1;ratioP1;P2;durP2;ratioP2
68250;SDS011;55066;51.560;4.642;2023-03-13T00:00:54;16.55;;;2.88;;
68250;SDS011;55066;51.560;4.642;2023-03-13T00:03:24;21.10;;;3.50;;
68250;SDS011;55066;51.560;4.642;2023-03-13T00:05:55;25.50;;;3.97;;
68250;SDS011;55066;51.560;4.642;2023-03-13T00:08:23;26.17;;;4.45;;
68250;SDS011;55066;51.560;4.642;2023-03-13T00:10:50;26.05;;;4.03;;
68250;SDS011;55066;51.560;4.642;2023-03-13T00:13:15;25.35;;;3.88;;
68250;SDS011;55066;51.560;4.642;2023-03-13T00:15:41;23.95;;;4.60;;
68250;SDS011;55066;51.560;4.642;2023-03-13T00:18:06;24.03;;;4.77;;
68250;SDS011;55066;51.560;4.642;2023-03-13T00:20:33;26.00;;;4.55;;
68250;SDS011;55066;51.560;4.642;2023-03-13T00:22:59;25.47;;;4.70;;
68250;SDS011;55066;51.560;4.642;2023-03-13T00:25:24;29.90;;;4.93;;
68250;SDS011;55066;51.560;4.642;2023-03-13T00:27:50;17.45;;;4.43;;
68250;SDS011;55066;51.560;4.642;2023-03-13T00:30:16;29.93;;;5.17;;
68250;SDS011;55066;51.560;4.642;2023-03-13T00:32:45;16.10;;;4.32;;
68250;SDS011;55066;51.560;4.642;2023-03-13T00:35:12;17.73;;;3.40;;
68250;SDS011;55066;51.560;4.642;2023-03-13T00:37:37;17.27;;;4.32;;
68250;SDS011;55066;51.560;4.642;2023-03-13T00:40:04;19.13;;;4.68;;
68250;SDS011;55066;51.560;4.642;2023-03-13T00:42:33;16.80;;;5.28;;
68250;SDS011;55066;51.560;4.642;2023-03-13T00:44:58;20.33;;;5.37;;
68250;SDS011;55066;51.560;4.642;2023-03-13T00:47:25;23.23;;;5.53;;
68250;SDS011;55066;51.560;4.642;2023-03-13T00:49:51;20.67;;;6.07;;
68250;SDS011;55066;51.560;4.642;2023-03-13T00:52:17;18.13;;;6.57;;
68250;SDS011;55066;51.560;4.642;2023-03-13T00:54:44;25.55;;;6.25;;
68250;SDS011;55066;51.560;4.642;2023-03-13T00:57:11;20.88;;;6.72;;
68250;SDS011;55066;51.560;4.642;2023-03-13T00:59:37;19.80;;;5.93;;
68250;SDS011;55066;51.560;4.642;2023-03-13T01:02:03;21.97;;;7.37;;
68250;SDS011;55066;51.560;4.642;2023-03-13T01:04:31;28.30;;;8.07;;
68250;SDS011;55066;51.560;4.642;2023-03-13T01:06:56;28.05;;;7.63;;
68250;SDS011;55066;51.560;4.642;2023-03-13T01:09:22;27.67;;;7.63;;
68250;SDS011;55066;51.560;4.642;2023-03-13T01:11:48;22.20;;;7.15;;
68250;SDS011;55066;51.560;4.642;2023-03-13T01:14:15;19.35;;;6.72;;
68250;SDS011;55066;51.560;4.642;2023-03-13T01:16:42;22.00;;;8.02;;
68250;SDS011;55066;51.560;4.642;2023-03-13T01:19:09;24.92;;;8.52;;
68250;SDS011;55066;51.560;4.642;2023-03-13T01:21:39;23.42;;;9.13;;
68250;SDS011;55066;51.560;4.642;2023-03-13T01:24:05;27.10;;;9.83;;
68250;SDS011;55066;51.560;4.642;2023-03-13T01:26:31;24.27;;;7.80;;
68250;SDS011;55066;51.560;4.642;2023-03-13T01:28:57;24.50;;;7.38;;
68250;SDS011;55066;51.560;4.642;2023-03-13T01:31:29;29.40;;;9.13;;
68250;SDS011;55066;51.560;4.642;2023-03-13T01:33:59;24.20;;;9.32;;
68250;SDS011;55066;51.560;4.642;2023-03-13T01:36:27;25.35;;;9.38;;
68250;SDS011;55066;51.560;4.642;2023-03-13T01:38:53;26.38;;;10.73;;
68250;SDS011;55066;51.560;4.642;2023-03-13T01:41:21;24.65;;;8.52;;
68250;SDS011;55066;51.560;4.642;2023-03-13T01:43:49;20.13;;;8.25;;
68250;SDS011;55066;51.560;4.642;2023-03-13T01:46:26;28.10;;;8.57;;
68250;SDS011;55066;51.560;4.642;2023-03-13T01:49:08;22.48;;;9.10;;
68250;SDS011;55066;51.560;4.642;2023-03-13T01:52:00;24.48;;;8.80;;
68250;SDS011;55066;51.560;4.642;2023-03-13T01:54:40;21.85;;;9.38;;
68250;SDS011;55066;51.560;4.642;2023-03-13T01:57:26;21.40;;;8.65;;
68250;SDS011;55066;51.560;4.642;2023-03-13T01:59:58;26.63;;;10.80;;
68250;SDS011;55066;51.560;4.642;2023-03-13T02:02:38;26.55;;;10.38;;
68250;SDS011;55066;51.560;4.642;2023-03-13T02:05:06;27.33;;;9.32;;
68250;SDS011;55066;51.560;4.642;2023-03-13T02:07:33;29.75;;;9.40;;
68250;SDS011;55066;51.560;4.642;2023-03-13T02:10:04;24.92;;;11.20;;
68250;SDS011;55066;51.560;4.642;2023-03-13T02:12:33;28.65;;;11.13;;
68250;SDS011;55066;51.560;4.642;2023-03-13T02:15:02;26.92;;;10.60;;
68250;SDS011;55066;51.560;4.642;2023-03-13T02:17:30;23.70;;;9.50;;
68250;SDS011;55066;51.560;4.642;2023-03-13T02:20:01;25.65;;;10.00;;
68250;SDS011;55066;51.560;4.642;2023-03-13T02:30:50;20.20;;;8.63;;
68250;SDS011;55066;51.560;4.642;2023-03-13T02:33:19;20.98;;;7.35;;
68250;SDS011;55066;51.560;4.642;2023-03-13T02:35:47;18.95;;;6.55;;
68250;SDS011;55066;51.560;4.642;2023-03-13T02:38:23;16.77;;;6.50;;
68250;SDS011;55066;51.560;4.642;2023-03-13T02:40:52;16.23;;;6.07;;
68250;SDS011;55066;51.560;4.642;2023-03-13T02:43:35;11.80;;;5.40;;
68250;SDS011;55066;51.560;4.642;2023-03-13T02:48:51;18.23;;;5.38;;
68250;SDS011;55066;51.560;4.642;2023-03-13T02:54:02;12.02;;;4.70;;
68250;SDS011;55066;51.560;4.642;2023-03-13T02:56:32;11.97;;;4.57;;
68250;SDS011;55066;51.560;4.642;2023-03-13T02:59:02;17.95;;;6.25;;
68250;SDS011;55066;51.560;4.642;2023-03-13T03:01:30;13.38;;;5.70;;
68250;SDS011;55066;51.560;4.642;2023-03-13T03:03:56;15.20;;;5.43;;
68250;SDS011;55066;51.560;4.642;2023-03-13T03:06:23;14.93;;;6.07;;
68250;SDS011;55066;51.560;4.642;2023-03-13T03:08:50;10.87;;;4.90;;
68250;SDS011;55066;51.560;4.642;2023-03-13T03:11:16;13.57;;;5.60;;
68250;SDS011;55066;51.560;4.642;2023-03-13T03:13:48;13.55;;;5.45;;
68250;SDS011;55066;51.560;4.642;2023-03-13T03:16:15;13.90;;;5.05;;
68250;SDS011;55066;51.560;4.642;2023-03-13T03:18:45;14.15;;;5.15;;
68250;SDS011;55066;51.560;4.642;2023-03-13T03:21:13;13.00;;;5.30;;
68250;SDS011;55066;51.560;4.642;2023-03-13T03:23:41;12.52;;;4.65;;
68250;SDS011;55066;51.560;4.642;2023-03-13T03:26:07;12.35;;;4.15;;
68250;SDS011;55066;51.560;4.642;2023-03-13T03:28:33;13.33;;;4.77;;
68250;SDS011;55066;51.560;4.642;2023-03-13T03:31:05;10.23;;;4.72;;
68250;SDS011;55066;51.560;4.642;2023-03-13T03:33:38;9.73;;;4.25;;
68250;SDS011;55066;51.560;4.642;2023-03-13T03:36:09;11.50;;;4.90;;
68250;SDS011;55066;51.560;4.642;2023-03-13T03:38:41;10.43;;;4.57;;
68250;SDS011;55066;51.560;4.642;2023-03-13T03:41:09;11.70;;;3.75;;
68250;SDS011;55066;51.560;4.642;2023-03-13T03:43:36;11.88;;;4.13;;
68250;SDS011;55066;51.560;4.642;2023-03-13T03:46:05;9.45;;;4.10;;
68250;SDS011;55066;51.560;4.642;2023-03-13T03:48:31;13.57;;;4.50;;
68250;SDS011;55066;51.560;4.642;2023-03-13T03:50:57;11.52;;;3.88;;
68250;SDS011;55066;51.560;4.642;2023-03-13T03:53:23;8.77;;;4.07;;
68250;SDS011;55066;51.560;4.642;2023-03-13T03:55:51;7.53;;;3.58;;
68250;SDS011;55066;51.560;4.642;2023-03-13T03:58:16;9.57;;;3.73;;
68250;SDS011;55066;51.560;4.642;2023-03-13T04:01:01;8.32;;;3.05;;
68250;SDS011;55066;51.560;4.642;2023-03-13T04:03:27;8.57;;;3.53;;
68250;SDS011;55066;51.560;4.642;2023-03-13T04:05:53;11.87;;;2.97;;
68250;SDS011;55066;51.560;4.642;2023-03-13T04:08:21;8.43;;;3.53;;
68250;SDS011;55066;51.560;4.642;2023-03-13T04:10:47;9.17;;;3.60;;
68250;SDS011;55066;51.560;4.642;2023-03-13T04:13:13;8.70;;;3.60;;
68250;SDS011;55066;51.560;4.642;2023-03-13T04:15:41;6.60;;;3.13;;
68250;SDS011;55066;51.560;4.642;2023-03-13T04:18:08;7.57;;;3.22;;
68250;SDS011;55066;51.560;4.642;2023-03-13T04:20:34;8.65;;;3.47;;
68250;SDS011;55066;51.560;4.642;2023-03-13T04:23:01;10.95;;;3.10;;
68250;SDS011;55066;51.560;4.642;2023-03-13T04:25:27;7.97;;;3.50;;
68250;SDS011;55066;51.560;4.642;2023-03-13T04:27:55;7.25;;;3.17;;
68250;SDS011;55066;51.560;4.642;2023-03-13T04:30:24;9.27;;;3.20;;
68250;SDS011;55066;51.560;4.642;2023-03-13T04:33:20;5.40;;;2.45;;
68250;SDS011;55066;51.560;4.642;2023-03-13T04:36:10;9.48;;;2.90;;
68250;SDS011;55066;51.560;4.642;2023-03-13T04:39:03;12.68;;;3.10;;
68250;SDS011;55066;51.560;4.642;2023-03-13T04:41:35;10.85;;;3.17;;
68250;SDS011;55066;51.560;4.642;2023-03-13T04:44:21;7.50;;;3.20;;
68250;SDS011;55066;51.560;4.642;2023-03-13T04:46:59;7.03;;;2.90;;
68250;SDS011;55066;51.560;4.642;2023-03-13T04:49:45;8.82;;;3.20;;
68250;SDS011;55066;51.560;4.642;2023-03-13T04:52:38;10.02;;;3.55;;
68250;SDS011;55066;51.560;4.642;2023-03-13T04:55:28;6.80;;;3.08;;
68250;SDS011;55066;51.560;4.642;2023-03-13T04:58:06;8.70;;;2.90;;
68250;SDS011;55066;51.560;4.642;2023-03-13T05:00:57;7.35;;;2.47;;
68250;SDS011;55066;51.560;4.642;2023-03-13T05:03:31;10.10;;;3.33;;
68250;SDS011;55066;51.560;4.642;2023-03-13T05:05:57;7.18;;;2.70;;
68250;SDS011;55066;51.560;4.642;2023-03-13T05:08:41;8.98;;;3.20;;
68250;SDS011;55066;51.560;4.642;2023-03-13T05:11:35;10.23;;;2.90;;
68250;SDS011;55066;51.560;4.642;2023-03-13T05:14:27;8.15;;;2.78;;
68250;SDS011;55066;51.560;4.642;2023-03-13T05:17:11;11.15;;;3.15;;
68250;SDS011;55066;51.560;4.642;2023-03-13T05:19:49;11.23;;;3.22;;
68250;SDS011;55066;51.560;4.642;2023-03-13T05:22:47;9.38;;;3.58;;
68250;SDS011;55066;51.560;4.642;2023-03-13T05:25:45;8.05;;;3.00;;
68250;SDS011;55066;51.560;4.642;2023-03-13T05:28:14;8.60;;;2.63;;
68250;SDS011;55066;51.560;4.642;2023-03-13T05:31:00;8.27;;;2.60;;
68250;SDS011;55066;51.560;4.642;2023-03-13T05:33:44;11.02;;;2.95;;
68250;SDS011;55066;51.560;4.642;2023-03-13T05:36:23;9.82;;;2.80;;
68250;SDS011;55066;51.560;4.642;2023-03-13T05:39:09;10.13;;;2.97;;
68250;SDS011;55066;51.560;4.642;2023-03-13T05:41:53;9.45;;;2.75;;
68250;SDS011;55066;51.560;4.642;2023-03-13T05:44:45;8.60;;;2.50;;
68250;SDS011;55066;51.560;4.642;2023-03-13T05:47:24;8.50;;;2.80;;
68250;SDS011;55066;51.560;4.642;2023-03-13T05:50:09;6.85;;;2.45;;
68250;SDS011;55066;51.560;4.642;2023-03-13T05:53:02;8.60;;;2.40;;
68250;SDS011;55066;51.560;4.642;2023-03-13T05:55:50;11.30;;;3.10;;
68250;SDS011;55066;51.560;4.642;2023-03-13T05:58:39;6.45;;;2.90;;
68250;SDS011;55066;51.560;4.642;2023-03-13T06:01:08;17.03;;;2.90;;
68250;SDS011;55066;51.560;4.642;2023-03-13T06:03:59;12.75;;;2.90;;
68250;SDS011;55066;51.560;4.642;2023-03-13T06:06:26;10.57;;;3.03;;
68250;SDS011;55066;51.560;4.642;2023-03-13T06:08:54;13.63;;;3.30;;
68250;SDS011;55066;51.560;4.642;2023-03-13T06:11:23;12.02;;;2.90;;
68250;SDS011;55066;51.560;4.642;2023-03-13T06:13:53;10.60;;;2.95;;
68250;SDS011;55066;51.560;4.642;2023-03-13T06:16:25;6.40;;;2.60;;
68250;SDS011;55066;51.560;4.642;2023-03-13T06:18:56;9.93;;;2.70;;
68250;SDS011;55066;51.560;4.642;2023-03-13T06:21:22;10.63;;;2.65;;
68250;SDS011;55066;51.560;4.642;2023-03-13T06:23:47;7.82;;;2.33;;
68250;SDS011;55066;51.560;4.642;2023-03-13T06:26:13;9.02;;;2.80;;
68250;SDS011;55066;51.560;4.642;2023-03-13T06:28:40;11.30;;;2.90;;
68250;SDS011;55066;51.560;4.642;2023-03-13T06:31:06;11.50;;;2.95;;
68250;SDS011;55066;51.560;4.642;2023-03-13T06:33:33;15.88;;;3.05;;
68250;SDS011;55066;51.560;4.642;2023-03-13T06:35:59;12.63;;;2.87;;
68250;SDS011;55066;51.560;4.642;2023-03-13T06:38:25;9.00;;;2.40;;
68250;SDS011;55066;51.560;4.642;2023-03-13T06:40:52;8.75;;;2.80;;
68250;SDS011;55066;51.560;4.642;2023-03-13T06:43:18;8.68;;;2.42;;
68250;SDS011;55066;51.560;4.642;2023-03-13T06:45:44;9.93;;;2.10;;
68250;SDS011;55066;51.560;4.642;2023-03-13T06:48:09;9.25;;;2.45;;
68250;SDS011;55066;51.560;4.642;2023-03-13T06:50:39;6.75;;;2.50;;
68250;SDS011;55066;51.560;4.642;2023-03-13T06:53:05;9.02;;;2.80;;
68250;SDS011;55066;51.560;4.642;2023-03-13T06:55:31;13.85;;;3.35;;
68250;SDS011;55066;51.560;4.642;2023-03-13T06:57:58;8.05;;;2.65;;
68250;SDS011;55066;51.560;4.642;2023-03-13T07:00:24;11.20;;;3.08;;
68250;SDS011;55066;51.560;4.642;2023-03-13T07:02:49;7.07;;;2.40;;
68250;SDS011;55066;51.560;4.642;2023-03-13T07:05:16;6.53;;;2.67;;
68250;SDS011;55066;51.560;4.642;2023-03-13T07:07:42;9.07;;;2.70;;
68250;SDS011;55066;51.560;4.642;2023-03-13T07:10:08;9.93;;;2.97;;
68250;SDS011;55066;51.560;4.642;2023-03-13T07:12:35;5.95;;;2.42;;
68250;SDS011;55066;51.560;4.642;2023-03-13T07:15:02;9.57;;;2.60;;
68250;SDS011;55066;51.560;4.642;2023-03-13T07:17:29;8.38;;;2.70;;
68250;SDS011;55066;51.560;4.642;2023-03-13T07:19:55;12.13;;;3.05;;
68250;SDS011;55066;51.560;4.642;2023-03-13T07:22:22;6.95;;;2.80;;
68250;SDS011;55066;51.560;4.642;2023-03-13T07:24:48;13.25;;;2.80;;
68250;SDS011;55066;51.560;4.642;2023-03-13T07:27:16;12.30;;;2.70;;
68250;SDS011;55066;51.560;4.642;2023-03-13T07:29:46;10.85;;;2.90;;
68250;SDS011;55066;51.560;4.642;2023-03-13T07:32:11;8.32;;;2.22;;
68250;SDS011;55066;51.560;4.642;2023-03-13T07:34:38;12.83;;;2.80;;
68250;SDS011;55066;51.560;4.642;2023-03-13T07:37:05;9.95;;;3.00;;
68250;SDS011;55066;51.560;4.642;2023-03-13T07:39:33;7.15;;;2.63;;
68250;SDS011;55066;51.560;4.642;2023-03-13T07:41:58;8.77;;;3.03;;
68250;SDS011;55066;51.560;4.642;2023-03-13T07:44:24;9.85;;;2.90;;
68250;SDS011;55066;51.560;4.642;2023-03-13T07:46:50;7.37;;;2.83;;
68250;SDS011;55066;51.560;4.642;2023-03-13T07:49:15;11.52;;;3.08;;
68250;SDS011;55066;51.560;4.642;2023-03-13T07:51:41;9.73;;;2.90;;
68250;SDS011;55066;51.560;4.642;2023-03-13T07:54:09;8.63;;;2.70;;
68250;SDS011;55066;51.560;4.642;2023-03-13T07:56:35;16.03;;;3.17;;
68250;SDS011;55066;51.560;4.642;2023-03-13T07:59:01;5.88;;;2.22;;
68250;SDS011;55066;51.560;4.642;2023-03-13T08:01:27;7.68;;;2.65;;
68250;SDS011;55066;51.560;4.642;2023-03-13T08:03:54;10.68;;;3.08;;
68250;SDS011;55066;51.560;4.642;2023-03-13T08:06:21;9.53;;;2.60;;
68250;SDS011;55066;51.560;4.642;2023-03-13T08:08:48;7.80;;;2.30;;
68250;SDS011;55066;51.560;4.642;2023-03-13T08:11:16;10.48;;;2.45;;
68250;SDS011;55066;51.560;4.642;2023-03-13T08:13:47;7.20;;;2.58;;
68250;SDS011;55066;51.560;4.642;2023-03-13T08:16:17;8.18;;;2.58;;
68250;SDS011;55066;51.560;4.642;2023-03-13T08:18:49;9.43;;;2.70;;
68250;SDS011;55066;51.560;4.642;2023-03-13T08:21:18;11.93;;;2.55;;
68250;SDS011;55066;51.560;4.642;2023-03-13T08:23:53;9.18;;;2.20;;
68250;SDS011;55066;51.560;4.642;2023-03-13T08:26:22;6.50;;;2.65;;
68250;SDS011;55066;51.560;4.642;2023-03-13T08:28:59;7.57;;;2.15;;
68250;SDS011;55066;51.560;4.642;2023-03-13T08:31:27;6.83;;;2.10;;
68250;SDS011;55066;51.560;4.642;2023-03-13T08:34:12;6.25;;;2.08;;
68250;SDS011;55066;51.560;4.642;2023-03-13T08:36:38;7.22;;;2.08;;
68250;SDS011;55066;51.560;4.642;2023-03-13T08:39:05;5.93;;;1.90;;
68250;SDS011;55066;51.560;4.642;2023-03-13T08:41:34;6.00;;;1.90;;
68250;SDS011;55066;51.560;4.642;2023-03-13T08:44:08;8.00;;;2.05;;
68250;SDS011;55066;51.560;4.642;2023-03-13T08:46:36;8.30;;;2.30;;
68250;SDS011;55066;51.560;4.642;2023-03-13T08:49:03;6.22;;;1.83;;
68250;SDS011;55066;51.560;4.642;2023-03-13T08:51:30;5.20;;;1.70;;
68250;SDS011;55066;51.560;4.642;2023-03-13T08:53:56;6.73;;;1.70;;
68250;SDS011;55066;51.560;4.642;2023-03-13T08:56:22;6.05;;;2.00;;
68250;SDS011;55066;51.560;4.642;2023-03-13T08:58:52;9.35;;;2.10;;
68250;SDS011;55066;51.560;4.642;2023-03-13T09:01:22;5.43;;;1.50;;
68250;SDS011;55066;51.560;4.642;2023-03-13T09:03:50;6.35;;;1.95;;
68250;SDS011;55066;51.560;4.642;2023-03-13T09:06:16;6.65;;;1.98;;
68250;SDS011;55066;51.560;4.642;2023-03-13T09:08:42;5.88;;;1.90;;
68250;SDS011;55066;51.560;4.642;2023-03-13T09:11:11;7.75;;;1.77;;
68250;SDS011;55066;51.560;4.642;2023-03-13T09:13:46;5.57;;;1.60;;
68250;SDS011;55066;51.560;4.642;2023-03-13T09:16:15;5.30;;;1.75;;
68250;SDS011;55066;51.560;4.642;2023-03-13T09:18:44;7.72;;;1.80;;
68250;SDS011;55066;51.560;4.642;2023-03-13T09:21:15;5.87;;;1.67;;
68250;SDS011;55066;51.560;4.642;2023-03-13T09:23:45;4.88;;;1.67;;
68250;SDS011;55066;51.560;4.642;2023-03-13T09:26:11;8.07;;;1.98;;
68250;SDS011;55066;51.560;4.642;2023-03-13T09:28:42;4.15;;;1.65;;
68250;SDS011;55066;51.560;4.642;2023-03-13T09:31:12;6.00;;;1.98;;
68250;SDS011;55066;51.560;4.642;2023-03-13T09:33:40;7.40;;;2.10;;
68250;SDS011;55066;51.560;4.642;2023-03-13T09:36:08;6.68;;;1.98;;
68250;SDS011;55066;51.560;4.642;2023-03-13T09:38:36;7.65;;;1.98;;
68250;SDS011;55066;51.560;4.642;2023-03-13T09:43:54;6.40;;;2.00;;
68250;SDS011;55066;51.560;4.642;2023-03-13T09:46:46;3.75;;;1.60;;
68250;SDS011;55066;51.560;4.642;2023-03-13T09:49:28;7.15;;;1.77;;
68250;SDS011;55066;51.560;4.642;2023-03-13T09:52:13;5.22;;;1.63;;
68250;SDS011;55066;51.560;4.642;2023-03-13T09:54:58;5.38;;;1.80;;
68250;SDS011;55066;51.560;4.642;2023-03-13T09:57:50;6.32;;;1.65;;
68250;SDS011;55066;51.560;4.642;2023-03-13T10:05:35;3.97;;;1.60;;
68250;SDS011;55066;51.560;4.642;2023-03-13T10:08:12;5.95;;;1.50;;
68250;SDS011;55066;51.560;4.642;2023-03-13T10:10:47;5.45;;;1.50;;
68250;SDS011;55066;51.560;4.642;2023-03-13T10:13:22;7.35;;;1.77;;
68250;SDS011;55066;51.560;4.642;2023-03-13T10:15:55;5.43;;;1.80;;
68250;SDS011;55066;51.560;4.642;2023-03-13T10:18:25;5.10;;;1.80;;
68250;SDS011;55066;51.560;4.642;2023-03-13T10:20:52;4.67;;;1.67;;
68250;SDS011;55066;51.560;4.642;2023-03-13T10:23:34;4.93;;;1.70;;
68250;SDS011;55066;51.560;4.642;2023-03-13T10:26:04;4.88;;;2.05;;
68250;SDS011;55066;51.560;4.642;2023-03-13T10:28:33;6.25;;;2.40;;
68250;SDS011;55066;51.560;4.642;2023-03-13T10:31:13;5.83;;;2.10;;
68250;SDS011;55066;51.560;4.642;2023-03-13T10:33:50;6.00;;;1.65;;
68250;SDS011;55066;51.560;4.642;2023-03-13T10:36:16;5.25;;;1.88;;
68250;SDS011;55066;51.560;4.642;2023-03-13T10:38:45;4.47;;;1.70;;
68250;SDS011;55066;51.560;4.642;2023-03-13T10:41:24;5.15;;;2.15;;
68250;SDS011;55066;51.560;4.642;2023-03-13T10:43:58;4.07;;;1.40;;
68250;SDS011;55066;51.560;4.642;2023-03-13T10:46:31;3.30;;;1.60;;
68250;SDS011;55066;51.560;4.642;2023-03-13T10:49:00;3.42;;;1.40;;
68250;SDS011;55066;51.560;4.642;2023-03-13T10:52:11;4.57;;;1.70;;
68250;SDS011;55066;51.560;4.642;2023-03-13T10:54:28;8.52;;;1.60;;
68250;SDS011;55066;51.560;4.642;2023-03-13T10:57:08;5.30;;;1.50;;
68250;SDS011;55066;51.560;4.642;2023-03-13T10:59:42;4.78;;;1.60;;
68250;SDS011;55066;51.560;4.642;2023-03-13T11:04:51;4.78;;;1.30;;
68250;SDS011;55066;51.560;4.642;2023-03-13T11:07:28;3.90;;;1.30;;
68250;SDS011;55066;51.560;4.642;2023-03-13T11:12:59;3.03;;;1.10;;
68250;SDS011;55066;51.560;4.642;2023-03-13T11:15:42;3.58;;;1.10;;
68250;SDS011;55066;51.560;4.642;2023-03-13T11:18:23;5.80;;;1.48;;
68250;SDS011;55066;51.560;4.642;2023-03-13T11:21:16;4.13;;;1.20;;
68250;SDS011;55066;51.560;4.642;2023-03-13T11:23:53;7.07;;;1.50;;
68250;SDS011;55066;51.560;4.642;2023-03-13T11:26:41;4.03;;;1.40;;
68250;SDS011;55066;51.560;4.642;2023-03-13T11:29:26;4.93;;;1.40;;
68250;SDS011;55066;51.560;4.642;2023-03-13T11:32:21;4.43;;;1.40;;
68250;SDS011;55066;51.560;4.642;2023-03-13T11:34:58;6.85;;;1.70;;
68250;SDS011;55066;51.560;4.642;2023-03-13T11:37:30;4.65;;;1.17;;
68250;SDS011;55066;51.560;4.642;2023-03-13T11:40:03;3.50;;;0.95;;
68250;SDS011;55066;51.560;4.642;2023-03-13T11:42:37;4.90;;;1.13;;
68250;SDS011;55066;51.560;4.642;2023-03-13T11:45:22;8.02;;;1.50;;
68250;SDS011;55066;51.560;4.642;2023-03-13T11:48:20;6.00;;;0.90;;
68250;SDS011;55066;51.560;4.642;2023-03-13T11:56:56;8.23;;;1.50;;
68250;SDS011;55066;51.560;4.642;2023-03-13T12:02:20;6.00;;;1.27;;
68250;SDS011;55066;51.560;4.642;2023-03-13T12:04:54;8.02;;;1.40;;
68250;SDS011;55066;51.560;4.642;2023-03-13T12:07:34;7.32;;;1.27;;
68250;SDS011;55066;51.560;4.642;2023-03-13T12:10:04;3.58;;;1.40;;
68250;SDS011;55066;51.560;4.642;2023-03-13T12:12:42;7.07;;;1.35;;
68250;SDS011;55066;51.560;4.642;2023-03-13T12:15:33;8.80;;;1.20;;
68250;SDS011;55066;51.560;4.642;2023-03-13T12:18:24;6.90;;;1.42;;
68250;SDS011;55066;51.560;4.642;2023-03-13T12:20:57;3.60;;;1.25;;
68250;SDS011;55066;51.560;4.642;2023-03-13T12:23:49;4.40;;;1.20;;
68250;SDS011;55066;51.560;4.642;2023-03-13T12:26:32;5.97;;;1.10;;
68250;SDS011;55066;51.560;4.642;2023-03-13T12:31:46;3.90;;;1.35;;
68250;SDS011;55066;51.560;4.642;2023-03-13T12:34:21;3.88;;;1.33;;
68250;SDS011;55066;51.560;4.642;2023-03-13T12:37:00;7.93;;;1.40;;
68250;SDS011;55066;51.560;4.642;2023-03-13T12:39:53;5.18;;;1.20;;
68250;SDS011;55066;51.560;4.642;2023-03-13T12:45:15;4.68;;;1.35;;
68250;SDS011;55066;51.560;4.642;2023-03-13T12:47:50;6.88;;;1.25;;
68250;SDS011;55066;51.560;4.642;2023-03-13T13:01:34;8.32;;;1.60;;
68250;SDS011;55066;51.560;4.642;2023-03-13T13:04:06;8.32;;;1.50;;
68250;SDS011;55066;51.560;4.642;2023-03-13T13:06:49;8.45;;;1.80;;
68250;SDS011;55066;51.560;4.642;2023-03-13T13:09:23;6.57;;;1.57;;
68250;SDS011;55066;51.560;4.642;2023-03-13T13:12:34;8.45;;;1.75;;
68250;SDS011;55066;51.560;4.642;2023-03-13T13:17:21;10.00;;;1.52;;
68250;SDS011;55066;51.560;4.642;2023-03-13T13:19:57;13.10;;;2.15;;
68250;SDS011;55066;51.560;4.642;2023-03-13T13:27:52;9.20;;;1.50;;
68250;SDS011;55066;51.560;4.642;2023-03-13T13:32:54;11.38;;;1.75;;
68250;SDS011;55066;51.560;4.642;2023-03-13T13:35:40;8.95;;;1.88;;
68250;SDS011;55066;51.560;4.642;2023-03-13T13:43:30;9.57;;;1.73;;
68250;SDS011;55066;51.560;4.642;2023-03-13T13:46:00;9.88;;;2.10;;
68250;SDS011;55066;51.560;4.642;2023-03-13T13:48:34;9.67;;;2.03;;
68250;SDS011;55066;51.560;4.642;2023-03-13T14:02:10;8.93;;;1.83;;
68250;SDS011;55066;51.560;4.642;2023-03-13T14:04:51;13.23;;;1.90;;
68250;SDS011;55066;51.560;4.642;2023-03-13T14:11:02;12.25;;;2.40;;
68250;SDS011;55066;51.560;4.642;2023-03-13T14:13:09;6.10;;;1.80;;
68250;SDS011;55066;51.560;4.642;2023-03-13T14:15:40;8.57;;;1.40;;
68250;SDS011;55066;51.560;4.642;2023-03-13T14:20:53;6.60;;;1.45;;
68250;SDS011;55066;51.560;4.642;2023-03-13T14:23:32;12.45;;;2.05;;
68250;SDS011;55066;51.560;4.642;2023-03-13T14:28:35;12.20;;;1.90;;
68250;SDS011;55066;51.560;4.642;2023-03-13T14:31:04;10.95;;;2.20;;
68250;SDS011;55066;51.560;4.642;2023-03-13T14:33:29;10.88;;;2.42;;
68250;SDS011;55066;51.560;4.642;2023-03-13T14:35:56;8.17;;;2.10;;
68250;SDS011;55066;51.560;4.642;2023-03-13T14:38:25;11.45;;;2.00;;
68250;SDS011;55066;51.560;4.642;2023-03-13T14:40:54;9.60;;;1.77;;
68250;SDS011;55066;51.560;4.642;2023-03-13T14:46:13;11.32;;;2.28;;
68250;SDS011;55066;51.560;4.642;2023-03-13T14:48:40;12.73;;;2.40;;
68250;SDS011;55066;51.560;4.642;2023-03-13T14:51:09;8.43;;;1.90;;
68250;SDS011;55066;51.560;4.642;2023-03-13T14:53:54;13.68;;;2.58;;
68250;SDS011;55066;51.560;4.642;2023-03-13T15:02:13;16.17;;;2.10;;
68250;SDS011;55066;51.560;4.642;2023-03-13T15:04:57;13.15;;;1.85;;
68250;SDS011;55066;51.560;4.642;2023-03-13T15:07:28;11.23;;;2.60;;
68250;SDS011;55066;51.560;4.642;2023-03-13T15:15:46;16.75;;;2.30;;
68250;SDS011;55066;51.560;4.642;2023-03-13T15:20:53;13.57;;;2.33;;
68250;SDS011;55066;51.560;4.642;2023-03-13T15:23:20;8.43;;;2.35;;
68250;SDS011;55066;51.560;4.642;2023-03-13T15:25:46;10.40;;;2.13;;
68250;SDS011;55066;51.560;4.642;2023-03-13T15:28:15;11.83;;;2.23;;
68250;SDS011;55066;51.560;4.642;2023-03-13T15:30:49;10.75;;;2.33;;
68250;SDS011;55066;51.560;4.642;2023-03-13T15:33:16;11.65;;;2.42;;
68250;SDS011;55066;51.560;4.642;2023-03-13T15:35:44;13.90;;;2.47;;
68250;SDS011;55066;51.560;4.642;2023-03-13T15:38:15;12.77;;;2.30;;
68250;SDS011;55066;51.560;4.642;2023-03-13T15:40:42;13.57;;;2.37;;
68250;SDS011;55066;51.560;4.642;2023-03-13T15:43:11;13.63;;;2.42;;
68250;SDS011;55066;51.560;4.642;2023-03-13T15:45:38;12.30;;;2.50;;
68250;SDS011;55066;51.560;4.642;2023-03-13T15:48:25;12.00;;;2.35;;
68250;SDS011;55066;51.560;4.642;2023-03-13T15:50:52;12.43;;;2.60;;
68250;SDS011;55066;51.560;4.642;2023-03-13T15:53:21;18.03;;;3.00;;
68250;SDS011;55066;51.560;4.642;2023-03-13T15:55:48;14.68;;;2.63;;
68250;SDS011;55066;51.560;4.642;2023-03-13T15:58:16;14.27;;;2.83;;
68250;SDS011;55066;51.560;4.642;2023-03-13T16:00:43;15.75;;;2.60;;
68250;SDS011;55066;51.560;4.642;2023-03-13T16:03:23;13.48;;;2.10;;
68250;SDS011;55066;51.560;4.642;2023-03-13T16:05:51;10.93;;;2.33;;
68250;SDS011;55066;51.560;4.642;2023-03-13T16:08:19;12.10;;;2.30;;
68250;SDS011;55066;51.560;4.642;2023-03-13T16:10:47;14.40;;;2.30;;
68250;SDS011;55066;51.560;4.642;2023-03-13T16:13:15;10.35;;;2.33;;
68250;SDS011;55066;51.560;4.642;2023-03-13T16:15:41;15.55;;;2.22;;
68250;SDS011;55066;51.560;4.642;2023-03-13T16:18:15;15.30;;;2.47;;
68250;SDS011;55066;51.560;4.642;2023-03-13T16:20:47;11.55;;;2.03;;
68250;SDS011;55066;51.560;4.642;2023-03-13T16:23:13;13.55;;;2.33;;
68250;SDS011;55066;51.560;4.642;2023-03-13T16:25:40;12.52;;;2.58;;
68250;SDS011;55066;51.560;4.642;2023-03-13T16:28:09;12.52;;;2.00;;
68250;SDS011;55066;51.560;4.642;2023-03-13T16:30:36;18.57;;;2.57;;
68250;SDS011;55066;51.560;4.642;2023-03-13T16:33:05;7.80;;;1.80;;
68250;SDS011;55066;51.560;4.642;2023-03-13T16:35:33;13.88;;;2.63;;
68250;SDS011;55066;51.560;4.642;2023-03-13T16:37:58;13.82;;;2.60;;
68250;SDS011;55066;51.560;4.642;2023-03-13T16:40:25;10.10;;;2.20;;
68250;SDS011;55066;51.560;4.642;2023-03-13T16:42:54;18.48;;;2.85;;
68250;SDS011;55066;51.560;4.642;2023-03-13T16:45:20;15.43;;;2.37;;
68250;SDS011;55066;51.560;4.642;2023-03-13T16:47:46;16.52;;;2.55;;
68250;SDS011;55066;51.560;4.642;2023-03-13T16:52:51;16.77;;;2.53;;
68250;SDS011;55066;51.560;4.642;2023-03-13T16:55:19;9.40;;;2.35;;
68250;SDS011;55066;51.560;4.642;2023-03-13T16:57:45;10.75;;;2.67;;